sensor_id;sensor_type;location;lat;lon;timestamp;pressure;altitude;pressure_sealevel;temperature;humidity
20444;BME280;10381;53.730;10.010;2023-02-02T00:03:56;100582.66;;;4.52;100.00
20444;BME280;10381;53.730;10.010;2023-02-02T00:07:56;100580.78;;;4.54;100.00
20444;BME280;10381;53.730;10.010;2023-02-02T00:11:58;100582.41;;;4.69;100.00
20444;BME280;10381;53.730;10.010;2023-02-02T00:20:25;100597.09;;;4.72;100.00
20444;BME280;10381;53.730;10.010;2023-02-02T00:24:26;100590.28;;;4.82;100.00
20444;BME280;10381;53.730;10.010;2023-02-02T00:28:26;100615.69;;;4.82;100.00
20444;BME280;10381;53.730;10.010;2023-02-02T00:32:26;100598.06;;;4.84;100.00
20444;BME280;10381;53.730;10.010;2023-02-02T00:36:26;100608.56;;;4.84;100.00
20444;BME280;10381;53.730;10.010;2023-02-02T00:40:26;100615.06;;;4.78;100.00
20444;BME280;10381;53.730;10.010;2023-02-02T00:44:27;100611.69;;;4.76;100.00
20444;BME280;10381;53.730;10.010;2023-02-02T00:48:46;100619.03;;;4.71;100.00
20444;BME280;10381;53.730;10.010;2023-02-02T00:52:47;100626.06;;;4.70;100.00
20444;BME280;10381;53.730;10.010;2023-02-02T00:56:48;100640.44;;;4.65;100.00
20444;BME280;10381;53.730;10.010;2023-02-02T01:00:48;100648.63;;;4.60;100.00
20444;BME280;10381;53.730;10.010;2023-02-02T01:04:48;100659.13;;;4.60;100.00
20444;BME280;10381;53.730;10.010;2023-02-02T01:08:49;100660.03;;;4.59;100.00
20444;BME280;10381;53.730;10.010;2023-02-02T01:12:49;100663.56;;;4.45;100.00
20444;BME280;10381;53.730;10.010;2023-02-02T01:16:49;100678.13;;;4.37;100.00
20444;BME280;10381;53.730;10.010;2023-02-02T01:24:56;100696.34;;;3.97;100.00
20444;BME280;10381;53.730;10.010;2023-02-02T01:28:57;100691.31;;;3.79;100.00
20444;BME280;10381;53.730;10.010;2023-02-02T01:32:57;100745.03;;;3.58;100.00
20444;BME280;10381;53.730;10.010;2023-02-02T01:36:57;100733.78;;;3.56;100.00
20444;BME280;10381;53.730;10.010;2023-02-02T01:40:58;100737.41;;;3.39;100.00
20444;BME280;10381;53.730;10.010;2023-02-02T01:45:29;100750.69;;;3.36;100.00
20444;BME280;10381;53.730;10.010;2023-02-02T01:49:29;100747.25;;;3.35;100.00
20444;BME280;10381;53.730;10.010;2023-02-02T01:53:30;100748.91;;;3.36;100.00
20444;BME280;10381;53.730;10.010;2023-02-02T01:57:44;100761.75;;;3.41;100.00
20444;BME280;10381;53.730;10.010;2023-02-02T02:01:46;100760.56;;;3.47;100.00
20444;BME280;10381;53.730;10.010;2023-02-02T02:05:51;100775.31;;;3.48;100.00
20444;BME280;10381;53.730;10.010;2023-02-02T02:09:52;100781.97;;;3.53;100.00
20444;BME280;10381;53.730;10.010;2023-02-02T02:13:54;100787.50;;;3.63;100.00
20444;BME280;10381;53.730;10.010;2023-02-02T02:23:41;100802.28;;;3.50;100.00
20444;BME280;10381;53.730;10.010;2023-02-02T02:41:07;100827.59;;;3.35;100.00
20444;BME280;10381;53.730;10.010;2023-02-02T02:45:10;100843.28;;;3.35;100.00
20444;BME280;10381;53.730;10.010;2023-02-02T02:49:12;100852.50;;;3.42;100.00
20444;BME280;10381;53.730;10.010;2023-02-02T02:53:15;100851.47;;;3.45;100.00
20444;BME280;10381;53.730;10.010;2023-02-02T03:01:53;100874.41;;;3.55;100.00
20444;BME280;10381;53.730;10.010;2023-02-02T03:06:20;100858.06;;;3.36;100.00
20444;BME280;10381;53.730;10.010;2023-02-02T03:10:23;100846.28;;;3.13;100.00
20444;BME280;10381;53.730;10.010;2023-02-02T03:14:25;100865.03;;;3.05;100.00
20444;BME280;10381;53.730;10.010;2023-02-02T03:18:27;100879.22;;;3.01;100.00
20444;BME280;10381;53.730;10.010;2023-02-02T03:22:28;100886.38;;;2.97;100.00
20444;BME280;10381;53.730;10.010;2023-02-02T03:26:28;100890.09;;;2.93;100.00
20444;BME280;10381;53.730;10.010;2023-02-02T03:30:29;100899.16;;;3.04;100.00
20444;BME280;10381;53.730;10.010;2023-02-02T03:34:30;100896.69;;;3.16;100.00
20444;BME280;10381;53.730;10.010;2023-02-02T03:38:30;100910.47;;;3.20;100.00
20444;BME280;10381;53.730;10.010;2023-02-02T03:42:30;100911.97;;;3.24;100.00
20444;BME280;10381;53.730;10.010;2023-02-02T03:46:31;100918.91;;;3.25;100.00
20444;BME280;10381;53.730;10.010;2023-02-02T03:50:31;100931.91;;;3.27;100.00
20444;BME280;10381;53.730;10.010;2023-02-02T03:54:32;100933.94;;;3.37;100.00
20444;BME280;10381;53.730;10.010;2023-02-02T03:58:32;100957.50;;;3.37;100.00
20444;BME280;10381;53.730;10.010;2023-02-02T04:02:32;100970.91;;;3.31;100.00
20444;BME280;10381;53.730;10.010;2023-02-02T04:06:32;100979.13;;;3.25;100.00
20444;BME280;10381;53.730;10.010;2023-02-02T04:10:33;100973.44;;;3.17;100.00
20444;BME280;10381;53.730;10.010;2023-02-02T04:14:33;100977.31;;;3.10;100.00
20444;BME280;10381;53.730;10.010;2023-02-02T04:18:33;100972.97;;;3.10;100.00
20444;BME280;10381;53.730;10.010;2023-02-02T04:22:36;100990.50;;;3.24;100.00
20444;BME280;10381;53.730;10.010;2023-02-02T04:26:38;100995.44;;;3.30;100.00
20444;BME280;10381;53.730;10.010;2023-02-02T04:30:38;101001.44;;;3.32;100.00
20444;BME280;10381;53.730;10.010;2023-02-02T04:34:39;100997.47;;;3.25;100.00
20444;BME280;10381;53.730;10.010;2023-02-02T04:38:39;101011.81;;;3.18;100.00
20444;BME280;10381;53.730;10.010;2023-02-02T04:42:39;101011.47;;;3.24;100.00
20444;BME280;10381;53.730;10.010;2023-02-02T04:46:40;101014.66;;;3.29;100.00
20444;BME280;10381;53.730;10.010;2023-02-02T04:50:41;101017.16;;;3.32;100.00
20444;BME280;10381;53.730;10.010;2023-02-02T04:54:41;101028.53;;;3.31;100.00
20444;BME280;10381;53.730;10.010;2023-02-02T04:58:42;101009.69;;;3.25;100.00
20444;BME280;10381;53.730;10.010;2023-02-02T05:02:42;101021.16;;;3.22;100.00
20444;BME280;10381;53.730;10.010;2023-02-02T05:06:43;101020.16;;;3.25;100.00
20444;BME280;10381;53.730;10.010;2023-02-02T05:10:43;101027.03;;;3.27;100.00
20444;BME280;10381;53.730;10.010;2023-02-02T05:14:44;101029.31;;;3.33;100.00
20444;BME280;10381;53.730;10.010;2023-02-02T05:18:52;101034.97;;;3.26;100.00
20444;BME280;10381;53.730;10.010;2023-02-02T05:22:53;101032.50;;;3.23;100.00
20444;BME280;10381;53.730;10.010;2023-02-02T05:26:53;101045.97;;;3.15;100.00
20444;BME280;10381;53.730;10.010;2023-02-02T05:30:57;101045.25;;;3.29;100.00
20444;BME280;10381;53.730;10.010;2023-02-02T05:34:57;101060.97;;;3.29;100.00
20444;BME280;10381;53.730;10.010;2023-02-02T05:38:58;101058.94;;;3.34;100.00
20444;BME280;10381;53.730;10.010;2023-02-02T05:42:59;101061.56;;;3.34;100.00
20444;BME280;10381;53.730;10.010;2023-02-02T05:46:59;101069.66;;;3.29;100.00
20444;BME280;10381;53.730;10.010;2023-02-02T05:51:05;101064.53;;;3.28;100.00
20444;BME280;10381;53.730;10.010;2023-02-02T05:55:09;101074.16;;;3.27;100.00
20444;BME280;10381;53.730;10.010;2023-02-02T05:59:09;101081.06;;;3.28;100.00
20444;BME280;10381;53.730;10.010;2023-02-02T06:03:10;101088.41;;;3.22;100.00
20444;BME280;10381;53.730;10.010;2023-02-02T06:07:11;101095.00;;;3.13;100.00
20444;BME280;10381;53.730;10.010;2023-02-02T06:11:14;101083.88;;;3.08;100.00
20444;BME280;10381;53.730;10.010;2023-02-02T06:15:15;101091.00;;;3.06;100.00
20444;BME280;10381;53.730;10.010;2023-02-02T06:19:15;101102.97;;;3.10;100.00
20444;BME280;10381;53.730;10.010;2023-02-02T06:23:15;101111.44;;;3.15;100.00
20444;BME280;10381;53.730;10.010;2023-02-02T06:27:15;101110.28;;;3.20;100.00
20444;BME280;10381;53.730;10.010;2023-02-02T06:31:16;101120.41;;;3.27;100.00
20444;BME280;10381;53.730;10.010;2023-02-02T06:35:18;101122.97;;;3.28;100.00
20444;BME280;10381;53.730;10.010;2023-02-02T06:39:19;101135.91;;;3.31;100.00
20444;BME280;10381;53.730;10.010;2023-02-02T06:43:19;101142.06;;;3.30;100.00
20444;BME280;10381;53.730;10.010;2023-02-02T06:47:19;101160.28;;;3.16;100.00
20444;BME280;10381;53.730;10.010;2023-02-02T06:51:20;101143.56;;;3.18;100.00
20444;BME280;10381;53.730;10.010;2023-02-02T06:55:20;101149.97;;;3.13;100.00
20444;BME280;10381;53.730;10.010;2023-02-02T06:59:20;101150.25;;;3.07;100.00
20444;BME280;10381;53.730;10.010;2023-02-02T07:03:21;101166.28;;;3.01;100.00
20444;BME280;10381;53.730;10.010;2023-02-02T07:07:21;101178.91;;;2.92;100.00
20444;BME280;10381;53.730;10.010;2023-02-02T07:11:21;101179.06;;;2.89;100.00
20444;BME280;10381;53.730;10.010;2023-02-02T07:15:22;101190.31;;;2.91;100.00
20444;BME280;10381;53.730;10.010;2023-02-02T07:19:22;101194.28;;;2.81;100.00
20444;BME280;10381;53.730;10.010;2023-02-02T07:23:22;101195.63;;;2.90;100.00
20444;BME280;10381;53.730;10.010;2023-02-02T07:27:22;101201.06;;;2.85;100.00
20444;BME280;10381;53.730;10.010;2023-02-02T07:31:24;101208.75;;;2.88;100.00
20444;BME280;10381;53.730;10.010;2023-02-02T07:35:25;101207.09;;;3.05;100.00
20444;BME280;10381;53.730;10.010;2023-02-02T07:39:25;101208.31;;;3.15;100.00
20444;BME280;10381;53.730;10.010;2023-02-02T07:43:26;101216.69;;;3.22;100.00
20444;BME280;10381;53.730;10.010;2023-02-02T07:47:26;101227.41;;;3.34;100.00
20444;BME280;10381;53.730;10.010;2023-02-02T07:51:26;101232.31;;;3.40;100.00
20444;BME280;10381;53.730;10.010;2023-02-02T07:55:26;101237.25;;;3.47;100.00
20444;BME280;10381;53.730;10.010;2023-02-02T07:59:27;101246.41;;;3.55;100.00
20444;BME280;10381;53.730;10.010;2023-02-02T08:03:27;101244.38;;;3.60;100.00
20444;BME280;10381;53.730;10.010;2023-02-02T08:07:28;101252.25;;;3.78;100.00
20444;BME280;10381;53.730;10.010;2023-02-02T08:11:28;101246.34;;;3.90;100.00
20444;BME280;10381;53.730;10.010;2023-02-02T08:15:29;101252.13;;;3.79;100.00
20444;BME280;10381;53.730;10.010;2023-02-02T08:19:29;101262.66;;;3.62;100.00
20444;BME280;10381;53.730;10.010;2023-02-02T08:23:29;101270.97;;;3.70;100.00
20444;BME280;10381;53.730;10.010;2023-02-02T08:27:30;101269.66;;;3.79;100.00
20444;BME280;10381;53.730;10.010;2023-02-02T08:31:33;101269.47;;;3.82;100.00
20444;BME280;10381;53.730;10.010;2023-02-02T08:35:39;101276.09;;;3.89;100.00
20444;BME280;10381;53.730;10.010;2023-02-02T08:39:39;101280.31;;;3.92;100.00
20444;BME280;10381;53.730;10.010;2023-02-02T08:43:40;101285.84;;;4.03;100.00
20444;BME280;10381;53.730;10.010;2023-02-02T08:47:40;101287.22;;;4.10;100.00
20444;BME280;10381;53.730;10.010;2023-02-02T08:51:40;101293.66;;;4.20;100.00
20444;BME280;10381;53.730;10.010;2023-02-02T08:55:41;101289.00;;;4.25;100.00
20444;BME280;10381;53.730;10.010;2023-02-02T08:59:41;101300.91;;;4.48;100.00
20444;BME280;10381;53.730;10.010;2023-02-02T09:03:42;101307.69;;;4.53;100.00
20444;BME280;10381;53.730;10.010;2023-02-02T09:07:42;101307.69;;;4.53;100.00
20444;BME280;10381;53.730;10.010;2023-02-02T09:11:42;101316.81;;;4.61;100.00
20444;BME280;10381;53.730;10.010;2023-02-02T09:15:43;101322.25;;;4.74;100.00
20444;BME280;10381;53.730;10.010;2023-02-02T09:19:43;101323.41;;;4.68;100.00
20444;BME280;10381;53.730;10.010;2023-02-02T09:23:45;101337.75;;;4.79;100.00
20444;BME280;10381;53.730;10.010;2023-02-02T09:27:45;101331.31;;;4.84;100.00
20444;BME280;10381;53.730;10.010;2023-02-02T09:31:45;101338.50;;;4.97;100.00
20444;BME280;10381;53.730;10.010;2023-02-02T09:35:46;101344.59;;;4.97;100.00
20444;BME280;10381;53.730;10.010;2023-02-02T09:39:46;101356.00;;;5.12;100.00
20444;BME280;10381;53.730;10.010;2023-02-02T09:43:53;101363.22;;;5.08;100.00
20444;BME280;10381;53.730;10.010;2023-02-02T09:56:37;101373.03;;;5.21;100.00
20444;BME280;10381;53.730;10.010;2023-02-02T10:00:43;101375.16;;;5.30;100.00
20444;BME280;10381;53.730;10.010;2023-02-02T10:04:50;101397.75;;;5.48;100.00
20444;BME280;10381;53.730;10.010;2023-02-02T10:08:57;101387.81;;;5.53;100.00
20444;BME280;10381;53.730;10.010;2023-02-02T10:13:15;101393.72;;;5.57;100.00
20444;BME280;10381;53.730;10.010;2023-02-02T10:21:33;101406.56;;;5.47;100.00
20444;BME280;10381;53.730;10.010;2023-02-02T10:25:34;101413.09;;;5.40;100.00
20444;BME280;10381;53.730;10.010;2023-02-02T10:29:49;101415.19;;;5.65;100.00
20444;BME280;10381;53.730;10.010;2023-02-02T10:38:16;101446.47;;;6.30;100.00
20444;BME280;10381;53.730;10.010;2023-02-02T10:46:33;101459.97;;;6.24;100.00
20444;BME280;10381;53.730;10.010;2023-02-02T10:50:34;101463.72;;;6.20;100.00
20444;BME280;10381;53.730;10.010;2023-02-02T10:55:00;101476.38;;;6.44;100.00
20444;BME280;10381;53.730;10.010;2023-02-02T10:59:06;101467.66;;;6.13;100.00
20444;BME280;10381;53.730;10.010;2023-02-02T11:03:11;101473.25;;;6.37;100.00
20444;BME280;10381;53.730;10.010;2023-02-02T11:07:12;101478.34;;;6.97;100.00
20444;BME280;10381;53.730;10.010;2023-02-02T11:11:39;101470.81;;;6.34;100.00
20444;BME280;10381;53.730;10.010;2023-02-02T11:15:41;101458.22;;;6.68;100.00
20444;BME280;10381;53.730;10.010;2023-02-02T11:19:41;101471.09;;;7.15;100.00
20444;BME280;10381;53.730;10.010;2023-02-02T11:23:51;101474.44;;;6.61;100.00
20444;BME280;10381;53.730;10.010;2023-02-02T11:27:52;101487.09;;;6.40;100.00
20444;BME280;10381;53.730;10.010;2023-02-02T11:31:52;101484.88;;;6.18;100.00
20444;BME280;10381;53.730;10.010;2023-02-02T11:36:19;101489.91;;;6.37;100.00
20444;BME280;10381;53.730;10.010;2023-02-02T11:44:29;101487.69;;;7.03;100.00
20444;BME280;10381;53.730;10.010;2023-02-02T11:48:34;101494.00;;;7.42;100.00
20444;BME280;10381;53.730;10.010;2023-02-02T11:52:36;101488.03;;;7.11;100.00
20444;BME280;10381;53.730;10.010;2023-02-02T11:56:39;101503.56;;;6.58;100.00
20444;BME280;10381;53.730;10.010;2023-02-02T12:00:47;101496.88;;;6.53;100.00
20444;BME280;10381;53.730;10.010;2023-02-02T12:04:51;101498.78;;;6.65;100.00
20444;BME280;10381;53.730;10.010;2023-02-02T12:08:55;101500.16;;;6.56;100.00
20444;BME280;10381;53.730;10.010;2023-02-02T12:13:10;101504.91;;;6.21;100.00
20444;BME280;10381;53.730;10.010;2023-02-02T12:21:54;101514.25;;;6.11;100.00
20444;BME280;10381;53.730;10.010;2023-02-02T12:31:17;101521.19;;;6.42;100.00
20444;BME280;10381;53.730;10.010;2023-02-02T12:39:19;101521.06;;;6.29;100.00
20444;BME280;10381;53.730;10.010;2023-02-02T12:56:17;101525.25;;;6.48;100.00
20444;BME280;10381;53.730;10.010;2023-02-02T13:00:41;101530.38;;;6.21;100.00
20444;BME280;10381;53.730;10.010;2023-02-02T13:09:44;101530.81;;;7.85;100.00
20444;BME280;10381;53.730;10.010;2023-02-02T13:13:47;101533.19;;;7.48;100.00
20444;BME280;10381;53.730;10.010;2023-02-02T13:17:56;101536.44;;;7.52;100.00
20444;BME280;10381;53.730;10.010;2023-02-02T13:21:59;101532.47;;;7.03;100.00
20444;BME280;10381;53.730;10.010;2023-02-02T13:30:26;101538.28;;;6.05;100.00
20444;BME280;10381;53.730;10.010;2023-02-02T13:34:44;101540.66;;;5.93;100.00
20444;BME280;10381;53.730;10.010;2023-02-02T13:38:45;101546.63;;;5.97;100.00
20444;BME280;10381;53.730;10.010;2023-02-02T13:47:15;101551.88;;;5.97;100.00
20444;BME280;10381;53.730;10.010;2023-02-02T14:00:02;101561.50;;;6.28;100.00
20444;BME280;10381;53.730;10.010;2023-02-02T14:04:04;101567.06;;;6.38;100.00
20444;BME280;10381;53.730;10.010;2023-02-02T14:08:15;101568.00;;;6.37;100.00
20444;BME280;10381;53.730;10.010;2023-02-02T14:12:27;101569.78;;;6.67;100.00
20444;BME280;10381;53.730;10.010;2023-02-02T14:20:41;101574.50;;;6.46;100.00
20444;BME280;10381;53.730;10.010;2023-02-02T14:24:49;101572.41;;;6.36;100.00
20444;BME280;10381;53.730;10.010;2023-02-02T14:28:49;101571.44;;;6.23;100.00
20444;BME280;10381;53.730;10.010;2023-02-02T14:32:50;101573.06;;;6.10;100.00
20444;BME280;10381;53.730;10.010;2023-02-02T14:41:18;101579.28;;;6.09;100.00
20444;BME280;10381;53.730;10.010;2023-02-02T14:45:45;101581.66;;;5.97;100.00
20444;BME280;10381;53.730;10.010;2023-02-02T14:49:47;101589.94;;;5.90;100.00
20444;BME280;10381;53.730;10.010;2023-02-02T14:53:52;101604.44;;;5.81;100.00
20444;BME280;10381;53.730;10.010;2023-02-02T14:58:01;101608.59;;;5.69;100.00
20444;BME280;10381;53.730;10.010;2023-02-02T15:02:19;101619.03;;;5.71;100.00
20444;BME280;10381;53.730;10.010;2023-02-02T15:06:31;101619.38;;;5.65;100.00
20444;BME280;10381;53.730;10.010;2023-02-02T15:10:59;101620.88;;;5.53;100.00
20444;BME280;10381;53.730;10.010;2023-02-02T15:19:24;101622.97;;;5.30;100.00
20444;BME280;10381;53.730;10.010;2023-02-02T15:23:33;101627.06;;;5.19;100.00
20444;BME280;10381;53.730;10.010;2023-02-02T15:27:38;101627.47;;;5.11;100.00
20444;BME280;10381;53.730;10.010;2023-02-02T15:31:42;101631.41;;;5.02;100.00
20444;BME280;10381;53.730;10.010;2023-02-02T15:35:43;101653.06;;;4.90;100.00
20444;BME280;10381;53.730;10.010;2023-02-02T15:39:50;101649.66;;;4.70;100.00
20444;BME280;10381;53.730;10.010;2023-02-02T15:43:51;101666.47;;;4.66;100.00
20444;BME280;10381;53.730;10.010;2023-02-02T15:47:53;101666.31;;;4.52;100.00
20444;BME280;10381;53.730;10.010;2023-02-02T15:51:55;101667.09;;;4.54;100.00
20444;BME280;10381;53.730;10.010;2023-02-02T15:55:57;101674.44;;;4.47;100.00
20444;BME280;10381;53.730;10.010;2023-02-02T15:59:59;101674.25;;;4.33;100.00
20444;BME280;10381;53.730;10.010;2023-02-02T16:04:22;101688.91;;;4.18;100.00
20444;BME280;10381;53.730;10.010;2023-02-02T16:08:28;101696.88;;;3.98;100.00
20444;BME280;10381;53.730;10.010;2023-02-02T16:12:33;101701.97;;;3.42;100.00
20444;BME280;10381;53.730;10.010;2023-02-02T16:16:35;101711.34;;;3.07;100.00
20444;BME280;10381;53.730;10.010;2023-02-02T16:20:37;101722.69;;;3.28;100.00
20444;BME280;10381;53.730;10.010;2023-02-02T16:24:48;101727.13;;;3.47;100.00
20444;BME280;10381;53.730;10.010;2023-02-02T16:28:49;101732.69;;;3.59;100.00
20444;BME280;10381;53.730;10.010;2023-02-02T16:32:50;101727.88;;;3.69;100.00
20444;BME280;10381;53.730;10.010;2023-02-02T16:37:11;101727.69;;;3.74;100.00
20444;BME280;10381;53.730;10.010;2023-02-02T16:45:32;101743.34;;;3.14;100.00
20444;BME280;10381;53.730;10.010;2023-02-02T16:49:34;101734.16;;;2.83;100.00
20444;BME280;10381;53.730;10.010;2023-02-02T16:53:35;101735.19;;;2.35;100.00
20444;BME280;10381;53.730;10.010;2023-02-02T16:57:36;101727.16;;;1.94;100.00
20444;BME280;10381;53.730;10.010;2023-02-02T17:01:42;101732.66;;;1.63;100.00
20444;BME280;10381;53.730;10.010;2023-02-02T17:05:51;101735.13;;;1.42;100.00
20444;BME280;10381;53.730;10.010;2023-02-02T17:10:12;101738.06;;;1.33;100.00
20444;BME280;10381;53.730;10.010;2023-02-02T17:14:18;101746.09;;;1.52;100.00
20444;BME280;10381;53.730;10.010;2023-02-02T17:18:18;101739.31;;;1.72;100.00
20444;BME280;10381;53.730;10.010;2023-02-02T17:22:22;101745.09;;;1.80;100.00
20444;BME280;10381;53.730;10.010;2023-02-02T17:26:23;101759.09;;;1.54;100.00
20444;BME280;10381;53.730;10.010;2023-02-02T17:30:25;101748.75;;;1.25;100.00
20444;BME280;10381;53.730;10.010;2023-02-02T17:34:25;101762.06;;;1.18;100.00
20444;BME280;10381;53.730;10.010;2023-02-02T17:38:25;101741.34;;;1.13;100.00
20444;BME280;10381;53.730;10.010;2023-02-02T17:42:33;101751.22;;;1.30;100.00
20444;BME280;10381;53.730;10.010;2023-02-02T17:46:34;101739.84;;;1.56;100.00
20444;BME280;10381;53.730;10.010;2023-02-02T17:50:35;101737.31;;;1.55;100.00
20444;BME280;10381;53.730;10.010;2023-02-02T17:54:36;101743.41;;;1.79;100.00
20444;BME280;10381;53.730;10.010;2023-02-02T17:58:36;101745.09;;;1.80;100.00
20444;BME280;10381;53.730;10.010;2023-02-02T18:02:36;101750.56;;;1.74;100.00
20444;BME280;10381;53.730;10.010;2023-02-02T18:06:37;101759.19;;;1.76;100.00
20444;BME280;10381;53.730;10.010;2023-02-02T18:10:38;101756.50;;;1.77;100.00
20444;BME280;10381;53.730;10.010;2023-02-02T18:14:38;101760.69;;;1.83;100.00
20444;BME280;10381;53.730;10.010;2023-02-02T18:18:39;101757.88;;;1.87;100.00
20444;BME280;10381;53.730;10.010;2023-02-02T18:22:40;101754.03;;;1.98;100.00
20444;BME280;10381;53.730;10.010;2023-02-02T18:26:43;101753.41;;;2.15;100.00
20444;BME280;10381;53.730;10.010;2023-02-02T18:30:44;101744.34;;;2.23;100.00
20444;BME280;10381;53.730;10.010;2023-02-02T18:34:45;101758.53;;;2.18;100.00
20444;BME280;10381;53.730;10.010;2023-02-02T18:38:50;101751.53;;;2.18;100.00
20444;BME280;10381;53.730;10.010;2023-02-02T18:42:52;101741.56;;;2.28;100.00
20444;BME280;10381;53.730;10.010;2023-02-02T18:46:53;101735.19;;;2.35;100.00
20444;BME280;10381;53.730;10.010;2023-02-02T18:50:53;101733.81;;;2.48;100.00
20444;BME280;10381;53.730;10.010;2023-02-02T18:54:54;101735.44;;;2.51;100.00
20444;BME280;10381;53.730;10.010;2023-02-02T18:58:54;101732.72;;;2.54;100.00
20444;BME280;10381;53.730;10.010;2023-02-02T19:02:55;101722.13;;;2.57;100.00
20444;BME280;10381;53.730;10.010;2023-02-02T19:06:55;101708.00;;;2.61;100.00
20444;BME280;10381;53.730;10.010;2023-02-02T19:11:17;101708.75;;;2.65;100.00
20444;BME280;10381;53.730;10.010;2023-02-02T19:15:18;101705.06;;;2.69;100.00
20444;BME280;10381;53.730;10.010;2023-02-02T19:19:27;101696.44;;;2.67;100.00
20444;BME280;10381;53.730;10.010;2023-02-02T19:23:29;101697.13;;;2.72;100.00
20444;BME280;10381;53.730;10.010;2023-02-02T19:27:31;101693.34;;;2.79;100.00
20444;BME280;10381;53.730;10.010;2023-02-02T19:31:31;101697.31;;;2.88;100.00
20444;BME280;10381;53.730;10.010;2023-02-02T19:35:31;101676.66;;;3.02;100.00
20444;BME280;10381;53.730;10.010;2023-02-02T19:39:32;101663.13;;;3.13;100.00
20444;BME280;10381;53.730;10.010;2023-02-02T19:43:33;101658.34;;;3.23;100.00
20444;BME280;10381;53.730;10.010;2023-02-02T19:47:35;101654.59;;;3.28;100.00
20444;BME280;10381;53.730;10.010;2023-02-02T19:51:43;101655.38;;;3.30;100.00
20444;BME280;10381;53.730;10.010;2023-02-02T19:55:44;101652.75;;;3.30;100.00
20444;BME280;10381;53.730;10.010;2023-02-02T19:59:46;101642.91;;;3.35;100.00
20444;BME280;10381;53.730;10.010;2023-02-02T20:03:47;101654.78;;;3.44;100.00
20444;BME280;10381;53.730;10.010;2023-02-02T20:07:57;101635.94;;;3.55;100.00
20444;BME280;10381;53.730;10.010;2023-02-02T20:11:57;101632.38;;;3.56;100.00
20444;BME280;10381;53.730;10.010;2023-02-02T20:15:58;101630.53;;;3.58;100.00
20444;BME280;10381;53.730;10.010;2023-02-02T20:19:59;101627.81;;;3.61;100.00
20444;BME280;10381;53.730;10.010;2023-02-02T20:23:59;101619.00;;;3.62;100.00
20444;BME280;10381;53.730;10.010;2023-02-02T20:28:06;101606.97;;;3.58;100.00
20444;BME280;10381;53.730;10.010;2023-02-02T20:32:25;101607.84;;;3.58;100.00
20444;BME280;10381;53.730;10.010;2023-02-02T20:40:29;101615.75;;;3.57;100.00
20444;BME280;10381;53.730;10.010;2023-02-02T20:44:31;101609.78;;;3.53;100.00
20444;BME280;10381;53.730;10.010;2023-02-02T20:48:32;101608.94;;;3.53;100.00
20444;BME280;10381;53.730;10.010;2023-02-02T20:52:32;101602.03;;;3.52;100.00
20444;BME280;10381;53.730;10.010;2023-02-02T20:56:33;101600.19;;;3.54;100.00
20444;BME280;10381;53.730;10.010;2023-02-02T21:00:33;101595.94;;;3.51;100.00
20444;BME280;10381;53.730;10.010;2023-02-02T21:04:34;101588.13;;;3.50;100.00
20444;BME280;10381;53.730;10.010;2023-02-02T21:08:34;101581.97;;;3.51;100.00
20444;BME280;10381;53.730;10.010;2023-02-02T21:12:35;101574.25;;;3.48;100.00
20444;BME280;10381;53.730;10.010;2023-02-02T21:16:35;101569.03;;;3.48;100.00
20444;BME280;10381;53.730;10.010;2023-02-02T21:20:36;101569.16;;;3.45;100.00
20444;BME280;10381;53.730;10.010;2023-02-02T21:24:36;101573.63;;;3.42;100.00
20444;BME280;10381;53.730;10.010;2023-02-02T21:28:37;101575.59;;;3.37;100.00
20444;BME280;10381;53.730;10.010;2023-02-02T21:32:38;101577.50;;;3.34;100.00
20444;BME280;10381;53.730;10.010;2023-02-02T21:36:45;101570.50;;;3.34;100.00
20444;BME280;10381;53.730;10.010;2023-02-02T21:40:45;101571.41;;;3.33;100.00
20444;BME280;10381;53.730;10.010;2023-02-02T21:45:01;101560.09;;;3.33;100.00
20444;BME280;10381;53.730;10.010;2023-02-02T21:49:19;101548.69;;;3.34;100.00
20444;BME280;10381;53.730;10.010;2023-02-02T21:53:22;101551.47;;;3.31;100.00
20444;BME280;10381;53.730;10.010;2023-02-02T21:57:36;101541.81;;;3.31;100.00
20444;BME280;10381;53.730;10.010;2023-02-02T22:01:37;101524.56;;;3.27;100.00
20444;BME280;10381;53.730;10.010;2023-02-02T22:05:41;101523.00;;;3.23;100.00
20444;BME280;10381;53.730;10.010;2023-02-02T22:09:43;101515.84;;;3.27;100.00
20444;BME280;10381;53.730;10.010;2023-02-02T22:13:44;101502.75;;;3.27;100.00
20444;BME280;10381;53.730;10.010;2023-02-02T22:17:45;101482.66;;;3.27;100.00
20444;BME280;10381;53.730;10.010;2023-02-02T22:21:45;101464.09;;;3.32;100.00
20444;BME280;10381;53.730;10.010;2023-02-02T22:25:47;101447.69;;;3.28;100.00
20444;BME280;10381;53.730;10.010;2023-02-02T22:29:54;101430.03;;;3.32;100.00
20444;BME280;10381;53.730;10.010;2023-02-02T22:33:55;101424.91;;;3.30;100.00
20444;BME280;10381;53.730;10.010;2023-02-02T22:37:56;101414.28;;;3.33;100.00
20444;BME280;10381;53.730;10.010;2023-02-02T22:41:56;101439.63;;;3.33;100.00
20444;BME280;10381;53.730;10.010;2023-02-02T22:45:56;101423.75;;;3.36;100.00
20444;BME280;10381;53.730;10.010;2023-02-02T22:49:56;101419.22;;;3.39;100.00
20444;BME280;10381;53.730;10.010;2023-02-02T22:53:56;101407.81;;;3.40;100.00
20444;BME280;10381;53.730;10.010;2023-02-02T22:57:57;101399.19;;;3.38;100.00
20444;BME280;10381;53.730;10.010;2023-02-02T23:01:57;101389.25;;;3.45;100.00
20444;BME280;10381;53.730;10.010;2023-02-02T23:05:57;101393.72;;;3.43;100.00